Time;durP1;ratioP1;P1;durP2;ratioP2;P2;SDS_P1;SDS_P2;PMS_P1;PMS_P2;Temp;Humidity;BMP_temperature;BMP_pressure;BME280_temperature;BME280_humidity;BME280_pressure;Samples;Min_cycle;Max_cycle;Signal;HPM_P1;HPM_P2
2022/04/01 00:00:23;;;;;;;14.55;13.35;;;6.70;99.90;;;;;;5055326;28;20412;-90
2022/04/01 00:02:49;;;;;;;14.93;13.73;;;6.80;99.90;;;;;;5056708;28;20420;-89
2022/04/01 00:05:15;;;;;;;14.73;13.52;;;6.70;99.90;;;;;;5046421;28;20394;-90
2022/04/01 00:07:41;;;;;;;15.07;13.88;;;6.60;99.90;;;;;;5038555;28;20381;-89
2022/04/01 00:10:08;;;;;;;16.55;14.95;;;6.70;99.90;;;;;;5056268;28;20717;-89
2022/04/01 00:12:37;;;;;;;15.57;14.32;;;6.80;99.90;;;;;;5056313;28;20847;-90
2022/04/01 00:15:03;;;;;;;14.70;13.50;;;7.10;99.90;;;;;;5056244;28;20385;-90
2022/04/01 00:17:29;;;;;;;16.63;15.23;;;6.70;99.90;;;;;;5055933;28;20389;-90
2022/04/01 00:19:55;;;;;;;16.57;15.17;;;6.50;99.90;;;;;;5056239;28;20389;-89
2022/04/01 00:22:20;;;;;;;15.30;13.80;;;6.50;99.90;;;;;;5055997;28;20409;-90
2022/04/01 00:24:46;;;;;;;16.87;15.43;;;6.50;99.90;;;;;;5055861;28;20822;-89
2022/04/01 00:27:12;;;;;;;16.40;15.00;;;6.40;99.90;;;;;;5056407;28;20550;-89
2022/04/01 00:29:37;;;;;;;16.20;14.70;;;6.50;99.90;;;;;;5037766;28;20400;-90
2022/04/01 00:32:03;;;;;;;16.70;15.30;;;6.70;99.90;;;;;;5059101;28;20380;-89
2022/04/01 00:34:31;;;;;;;17.25;15.65;;;6.60;99.90;;;;;;5037797;28;20922;-89
2022/04/01 00:36:59;;;;;;;18.55;16.75;;;6.40;99.90;;;;;;5037634;28;20398;-90
2022/04/01 00:39:26;;;;;;;18.95;17.15;;;6.10;99.90;;;;;;5038116;28;20389;-90
2022/04/01 00:41:52;;;;;;;18.52;16.83;;;5.90;99.90;;;;;;5053421;28;20819;-89
2022/04/01 00:44:22;;;;;;;16.02;14.55;;;6.20;99.90;;;;;;5038151;28;20816;-89
2022/04/01 00:47:02;;;;;;;17.38;15.63;;;6.60;99.90;;;;;;5056328;28;20821;-89
2022/04/01 00:49:28;;;;;;;18.50;16.73;;;6.40;99.90;;;;;;5054946;28;20408;-90
2022/04/01 00:51:56;;;;;;;18.25;16.55;;;6.10;99.90;;;;;;5037321;28;20933;-89
2022/04/01 00:54:23;;;;;;;18.30;16.50;;;6.10;99.90;;;;;;5054692;28;20397;-89
2022/04/01 00:56:49;;;;;;;18.85;17.05;;;6.20;99.90;;;;;;5055687;28;20386;-89
2022/04/01 00:59:15;;;;;;;17.90;16.10;;;6.10;99.90;;;;;;5055102;28;20438;-90
2022/04/01 01:01:43;;;;;;;17.17;15.53;;;6.30;99.90;;;;;;5055145;28;20444;-90
2022/04/01 01:04:13;;;;;;;17.75;16.05;;;6.50;99.90;;;;;;5055125;28;20748;-89
2022/04/01 01:07:00;;;;;;;18.25;16.55;;;6.50;99.90;;;;;;5037062;28;20390;-89
2022/04/01 01:09:26;;;;;;;19.77;17.88;;;6.40;99.90;;;;;;5054593;28;20389;-90
2022/04/01 01:11:53;;;;;;;19.20;17.23;;;6.10;99.90;;;;;;5054911;28;20387;-90
2022/04/01 01:14:30;;;;;;;20.60;18.40;;;6.00;99.90;;;;;;5057076;28;20428;-90
2022/04/01 01:16:56;;;;;;;19.38;17.45;;;5.90;99.90;;;;;;5054986;28;20795;-89
2022/04/01 01:19:22;;;;;;;22.08;19.15;;;6.00;99.90;;;;;;5054760;28;20424;-90
2022/04/01 01:21:51;;;;;;;22.77;20.25;;;6.50;99.90;;;;;;5054428;28;20479;-90
2022/04/01 01:24:17;;;;;;;22.55;19.80;;;5.80;99.90;;;;;;5037120;28;20382;-89
2022/04/01 01:26:50;;;;;;;23.35;20.15;;;5.90;99.90;;;;;;5054794;28;20439;-90
2022/04/01 01:29:22;;;;;;;25.05;21.77;;;5.80;99.90;;;;;;5054703;28;20414;-89
2022/04/01 01:31:48;;;;;;;24.42;21.77;;;5.80;99.90;;;;;;5054743;28;20390;-89
2022/04/01 01:34:16;;;;;;;24.55;20.92;;;5.70;99.90;;;;;;5034123;28;20401;-89
2022/04/01 01:36:41;;;;;;;26.23;21.52;;;6.20;99.90;;;;;;5039720;28;20830;-89
2022/04/01 01:39:07;;;;;;;23.75;20.73;;;6.30;99.90;;;;;;5034849;28;20405;-89
2022/04/01 01:41:33;;;;;;;27.13;22.73;;;6.20;99.90;;;;;;5052504;28;20409;-89
2022/04/01 01:43:59;;;;;;;30.17;23.60;;;6.20;99.90;;;;;;5036287;28;20394;-90
2022/04/01 01:46:25;;;;;;;26.90;22.20;;;5.80;99.90;;;;;;5054769;28;20443;-90
2022/04/01 01:48:51;;;;;;;28.58;22.83;;;5.90;99.90;;;;;;5053806;28;20420;-89
2022/04/01 01:56:45;;;;;;;28.25;23.08;;;5.90;99.90;;;;;;5054362;28;20427;-89
2022/04/01 01:59:11;;;;;;;29.88;23.60;;;5.90;99.90;;;;;;5053106;28;20463;-90
2022/04/01 02:01:41;;;;;;;28.20;22.52;;;5.80;99.90;;;;;;5066473;28;20399;-89
2022/04/01 02:04:07;;;;;;;29.30;22.97;;;5.90;99.90;;;;;;5061936;28;20868;-90
2022/04/01 02:06:32;;;;;;;25.38;21.98;;;5.90;99.90;;;;;;5054097;28;20389;-89
2022/04/01 02:08:59;;;;;;;28.15;23.25;;;6.00;99.90;;;;;;5054139;28;20389;-90
2022/04/01 02:11:25;;;;;;;25.25;21.13;;;6.00;99.90;;;;;;5054079;28;20408;-89
2022/04/01 02:13:52;;;;;;;26.45;22.50;;;6.20;99.90;;;;;;5036311;28;20389;-89
2022/04/01 02:16:18;;;;;;;27.52;22.77;;;6.20;99.90;;;;;;5053998;28;20393;-89
2022/04/01 02:18:44;;;;;;;27.35;23.58;;;5.90;99.90;;;;;;5053909;28;20388;-90
2022/04/01 02:21:11;;;;;;;26.75;22.17;;;5.80;99.90;;;;;;5053374;28;20397;-90
2022/04/01 02:23:41;;;;;;;26.42;22.08;;;6.00;99.90;;;;;;5054724;28;20382;-89
2022/04/01 02:26:07;;;;;;;25.92;22.23;;;6.30;99.90;;;;;;5053250;28;20408;-89
2022/04/01 02:28:34;;;;;;;24.02;21.42;;;6.30;99.90;;;;;;5040837;28;20393;-89
2022/04/01 02:31:00;;;;;;;26.23;21.88;;;6.80;99.90;;;;;;5053828;28;20880;-89
2022/04/01 02:33:27;;;;;;;28.10;23.70;;;6.10;99.90;;;;;;5053737;28;20389;-90
2022/04/01 02:35:57;;;;;;;25.70;22.33;;;6.90;99.90;;;;;;5053737;28;20958;-89
2022/04/01 02:38:30;;;;;;;25.60;21.55;;;6.10;99.90;;;;;;5038210;28;20403;-90
2022/04/01 02:40:57;;;;;;;27.58;22.65;;;6.30;99.90;;;;;;5053425;28;20448;-90
2022/04/01 02:43:25;;;;;;;24.17;20.80;;;7.20;99.90;;;;;;5053189;28;20388;-89
2022/04/01 02:45:51;;;;;;;25.77;22.65;;;6.30;99.90;;;;;;5051153;28;20876;-89
2022/04/01 02:48:19;;;;;;;25.67;22.00;;;6.20;99.90;;;;;;5031658;28;20429;-90
2022/04/01 02:50:46;;;;;;;26.10;22.80;;;6.40;99.90;;;;;;5050945;28;20400;-89
2022/04/01 02:53:11;;;;;;;25.73;22.30;;;6.80;99.90;;;;;;5052723;28;20760;-89
2022/04/01 02:55:38;;;;;;;25.55;22.65;;;6.90;99.90;;;;;;5052097;28;20396;-89
2022/04/01 02:58:05;;;;;;;26.40;22.70;;;6.70;99.90;;;;;;5035050;28;20382;-89
2022/04/01 03:00:33;;;;;;;27.98;23.15;;;6.60;99.90;;;;;;5034377;28;20415;-89
2022/04/01 03:02:59;;;;;;;26.65;22.67;;;7.30;99.90;;;;;;5052538;28;20844;-90
2022/04/01 03:05:24;;;;;;;29.05;23.80;;;6.50;99.90;;;;;;5052921;28;20413;-89
2022/04/01 03:07:52;;;;;;;28.00;23.87;;;7.30;99.90;;;;;;5058759;28;20394;-89
2022/04/01 03:10:20;;;;;;;28.98;24.30;;;6.30;99.90;;;;;;5053701;28;20926;-89
2022/04/01 03:12:46;;;;;;;27.95;23.40;;;6.20;99.90;;;;;;5054674;28;20403;-89
2022/04/01 03:15:12;;;;;;;28.97;24.50;;;6.40;99.90;;;;;;5053155;28;20464;-90
2022/04/01 03:17:37;;;;;;;34.57;26.57;;;6.40;99.90;;;;;;5052544;28;20385;-89
2022/04/01 03:20:03;;;;;;;34.20;25.93;;;5.90;99.90;;;;;;5052707;28;20868;-90
2022/04/01 03:22:30;;;;;;;32.83;26.13;;;5.90;99.90;;;;;;5034844;28;20416;-89
2022/04/01 03:24:56;;;;;;;28.55;24.05;;;5.90;99.90;;;;;;5052862;28;20388;-90
2022/04/01 03:27:21;;;;;;;29.67;24.83;;;6.20;99.90;;;;;;5053162;28;20381;-90
2022/04/01 03:29:48;;;;;;;28.92;23.73;;;6.30;99.90;;;;;;5052685;28;20817;-89
2022/04/01 03:32:15;;;;;;;29.73;23.52;;;6.80;99.90;;;;;;5051838;28;20464;-89
2022/04/01 03:34:41;;;;;;;26.55;23.30;;;6.70;99.90;;;;;;5052862;28;20393;-90
2022/04/01 03:37:07;;;;;;;32.15;24.60;;;6.60;99.90;;;;;;5035338;28;20382;-90
2022/04/01 03:39:33;;;;;;;30.30;24.20;;;6.50;99.90;;;;;;5034821;28;20792;-90
2022/04/01 03:42:05;;;;;;;30.25;24.17;;;6.90;99.90;;;;;;5047021;28;20407;-90
2022/04/01 03:44:32;;;;;;;31.17;24.38;;;6.80;99.90;;;;;;5034597;28;20385;-89
2022/04/01 03:47:10;;;;;;;32.00;25.05;;;6.10;99.90;;;;;;5052657;28;20468;-89
2022/04/01 03:49:51;;;;;;;29.58;23.13;;;5.90;99.90;;;;;;5052499;28;20405;-90
2022/04/01 03:52:19;;;;;;;29.67;23.52;;;6.00;99.90;;;;;;5041469;28;20410;-90
2022/04/01 03:54:47;;;;;;;28.57;23.13;;;6.20;99.90;;;;;;5052172;28;20400;-89
2022/04/01 03:57:15;;;;;;;30.25;23.65;;;7.30;99.90;;;;;;5052238;28;20381;-90
2022/04/01 03:59:44;;;;;;;27.27;22.02;;;6.20;99.90;;;;;;5052526;28;20779;-89
2022/04/01 04:02:14;;;;;;;24.77;21.10;;;6.80;99.90;;;;;;5052329;28;20497;-90
2022/04/01 04:04:40;;;;;;;25.48;21.27;;;7.20;99.90;;;;;;5052592;28;20388;-89
2022/04/01 04:07:07;;;;;;;29.17;23.30;;;6.30;99.90;;;;;;5052620;28;20472;-89
2022/04/01 04:09:40;;;;;;;29.05;23.42;;;6.20;99.90;;;;;;5034454;28;20473;-90
2022/04/01 04:12:07;;;;;;;26.23;22.63;;;7.00;99.90;;;;;;5034507;28;20472;-90
2022/04/01 04:14:33;;;;;;;27.17;23.25;;;6.40;99.90;;;;;;5052440;28;20443;-89
2022/04/01 04:17:12;;;;;;;26.45;21.88;;;6.70;99.90;;;;;;5052512;28;20381;-90
2022/04/01 04:20:01;;;;;;;26.17;21.67;;;6.80;99.90;;;;;;5034848;28;20400;-89
2022/04/01 04:22:39;;;;;;;26.65;21.63;;;7.00;99.90;;;;;;5050099;28;20441;-90
2022/04/01 04:25:10;;;;;;;25.17;21.73;;;7.00;99.90;;;;;;5051703;28;20991;-90
2022/04/01 04:27:40;;;;;;;25.95;21.40;;;7.20;99.90;;;;;;5050307;28;20800;-90
2022/04/01 04:30:08;;;;;;;25.73;21.42;;;7.50;99.90;;;;;;5051267;28;20416;-90
2022/04/01 04:33:04;;;;;;;25.10;21.55;;;7.10;99.90;;;;;;5051217;28;20808;-90
2022/04/01 04:35:30;;;;;;;26.27;22.40;;;6.80;99.90;;;;;;5051572;28;20389;-88
2022/04/01 04:37:58;;;;;;;31.65;25.58;;;6.80;99.90;;;;;;5027162;28;20921;-90
2022/04/01 04:40:25;;;;;;;32.22;25.45;;;6.20;99.90;;;;;;5052483;28;20468;-89
2022/04/01 04:42:52;;;;;;;33.03;25.55;;;6.70;99.90;;;;;;5052505;28;20488;-90
2022/04/01 04:45:20;;;;;;;30.08;24.13;;;6.80;99.90;;;;;;5055994;28;20405;-90
2022/04/01 04:47:46;;;;;;;30.15;24.25;;;6.70;99.90;;;;;;5037447;28;20400;-90
2022/04/01 04:50:13;;;;;;;29.00;23.58;;;6.40;99.90;;;;;;5055503;28;20389;-90
2022/04/01 04:52:44;;;;;;;28.05;22.85;;;6.60;99.90;;;;;;5037069;28;20484;-90
2022/04/01 04:55:14;;;;;;;28.83;23.48;;;6.60;99.90;;;;;;5055341;28;20464;-91
2022/04/01 04:57:41;;;;;;;26.35;21.48;;;6.70;99.90;;;;;;5055660;28;20378;-90
2022/04/01 05:00:08;;;;;;;28.43;23.00;;;7.60;99.90;;;;;;5056137;28;20389;-90
2022/04/01 05:02:55;;;;;;;28.45;23.20;;;6.80;99.90;;;;;;5055715;28;20566;-90
2022/04/01 05:05:31;;;;;;;28.73;23.93;;;7.10;99.90;;;;;;5044579;28;20399;-90
2022/04/01 05:08:25;;;;;;;28.70;22.83;;;7.00;99.90;;;;;;5055255;28;20409;-90
2022/04/01 05:11:29;;;;;;;28.23;23.45;;;7.20;99.90;;;;;;5038940;28;20466;-90
2022/04/01 05:14:15;;;;;;;29.48;23.30;;;7.30;99.90;;;;;;5043488;28;20884;-89
2022/04/01 05:16:53;;;;;;;29.35;23.20;;;7.40;99.90;;;;;;5055230;28;20852;-89
2022/04/01 05:19:31;;;;;;;29.85;24.30;;;7.40;99.90;;;;;;5056333;28;20392;-90
2022/04/01 05:22:04;;;;;;;28.67;23.73;;;7.30;99.90;;;;;;5054708;28;20451;-89
2022/04/01 05:24:51;;;;;;;29.35;23.80;;;7.10;99.90;;;;;;5055097;28;20408;-90
2022/04/01 05:27:26;;;;;;;27.95;23.45;;;7.50;99.90;;;;;;5055719;28;20431;-89
2022/04/01 05:30:01;;;;;;;28.13;23.00;;;7.40;99.90;;;;;;5063066;28;20415;-89
2022/04/01 05:32:31;;;;;;;31.47;23.37;;;7.40;99.90;;;;;;5055663;28;20464;-89
2022/04/01 05:35:00;;;;;;;27.52;22.92;;;7.50;99.90;;;;;;5028309;28;20731;-89
2022/04/01 05:37:28;;;;;;;27.95;23.13;;;8.00;99.90;;;;;;5031629;28;20772;-89
2022/04/01 05:39:55;;;;;;;27.65;23.05;;;7.30;99.90;;;;;;5053573;28;20389;-89
2022/04/01 05:42:22;;;;;;;27.40;22.58;;;7.40;99.90;;;;;;5054379;28;20401;-89
2022/04/01 05:44:51;;;;;;;30.35;23.60;;;7.20;99.90;;;;;;5054724;28;20464;-89
2022/04/01 05:47:17;;;;;;;27.33;21.70;;;7.40;99.90;;;;;;5053971;28;20884;-89
2022/04/01 05:49:44;;;;;;;26.85;22.10;;;7.80;99.90;;;;;;5054857;28;20436;-88
2022/04/01 05:52:12;;;;;;;25.83;21.95;;;7.60;99.90;;;;;;5055222;28;20523;-90
2022/04/01 05:54:42;;;;;;;28.70;22.80;;;7.30;99.90;;;;;;5052357;28;20410;-89
2022/04/01 05:57:08;;;;;;;25.63;20.83;;;6.90;99.90;;;;;;5054611;28;20464;-90
2022/04/01 05:59:34;;;;;;;15.85;14.20;;;7.20;99.90;;;;;;5054395;28;20394;-90
2022/04/01 06:02:15;;;;;;;14.20;12.80;;;6.60;99.90;;;;;;5047687;28;20497;-90
2022/04/01 06:05:05;;;;;;;14.05;12.75;;;6.70;99.90;;;;;;5036476;28;20389;-90
2022/04/01 06:07:40;;;;;;;11.20;10.25;;;6.90;99.90;;;;;;5036493;28;20408;-90
2022/04/01 06:10:11;;;;;;;9.40;8.60;;;6.80;99.90;;;;;;5053734;28;20744;-90
2022/04/01 06:12:49;;;;;;;8.38;7.75;;;6.90;99.90;;;;;;5036527;28;20393;-90
2022/04/01 06:15:23;;;;;;;8.23;7.53;;;7.00;99.90;;;;;;5035634;28;20416;-90
2022/04/01 06:18:10;;;;;;;8.25;7.55;;;7.00;99.90;;;;;;5056283;28;20483;-90
2022/04/01 06:20:38;;;;;;;7.47;6.90;;;7.10;99.90;;;;;;5025595;28;20914;-89
2022/04/01 06:23:12;;;;;;;8.32;7.63;;;7.10;99.90;;;;;;5054040;28;20388;-90
2022/04/01 06:25:43;;;;;;;7.40;6.80;;;7.20;99.90;;;;;;5055462;28;20876;-89
2022/04/01 06:28:16;;;;;;;8.00;7.30;;;7.10;99.90;;;;;;5056609;28;20373;-90
2022/04/01 06:30:44;;;;;;;7.75;7.15;;;6.80;99.90;;;;;;5057173;28;20880;-90
2022/04/01 06:33:32;;;;;;;8.35;7.72;;;7.10;99.90;;;;;;5037789;28;20386;-90
2022/04/01 06:36:03;;;;;;;8.45;7.75;;;7.00;99.90;;;;;;5057136;28;20389;-89
2022/04/01 06:38:41;;;;;;;8.38;7.68;;;7.00;99.90;;;;;;5045974;28;20387;-90
2022/04/01 06:41:25;;;;;;;8.50;7.80;;;6.60;99.90;;;;;;5055945;28;20410;-90
2022/04/01 06:43:50;;;;;;;7.80;7.18;;;7.20;99.90;;;;;;5059120;28;20400;-90
2022/04/01 06:46:16;;;;;;;7.93;7.28;;;7.10;99.90;;;;;;5005305;28;20873;-90
2022/04/01 06:48:42;;;;;;;7.93;7.28;;;7.10;99.90;;;;;;5055098;28;20404;-90
2022/04/01 06:51:08;;;;;;;7.63;7.03;;;7.20;99.90;;;;;;5056869;28;20465;-90
2022/04/01 06:53:37;;;;;;;7.63;6.93;;;7.20;99.90;;;;;;5055329;28;20389;-90
2022/04/01 06:56:03;;;;;;;7.57;6.97;;;8.10;99.90;;;;;;5056784;28;20424;-91
2022/04/01 06:58:30;;;;;;;7.82;7.13;;;6.80;99.90;;;;;;5057204;28;20381;-90
2022/04/01 07:00:56;;;;;;;7.60;6.97;;;6.60;99.90;;;;;;5056923;28;20921;-89
2022/04/01 07:03:23;;;;;;;7.47;6.88;;;6.70;99.90;;;;;;5043278;28;20398;-90
2022/04/01 07:05:48;;;;;;;7.47;6.88;;;7.60;99.90;;;;;;5073903;28;20406;-89
2022/04/01 07:08:16;;;;;;;6.80;6.23;;;7.10;99.90;;;;;;5063027;28;20389;-90
2022/04/01 07:10:42;;;;;;;6.53;6.03;;;7.20;99.90;;;;;;5064485;28;20392;-90
2022/04/01 07:13:10;;;;;;;6.82;6.32;;;7.30;99.90;;;;;;5053370;28;20381;-89
2022/04/01 07:15:35;;;;;;;6.50;6.00;;;8.00;99.90;;;;;;5061403;28;20459;-90
2022/04/01 07:18:02;;;;;;;6.65;6.15;;;7.80;99.90;;;;;;5065740;28;20399;-90
2022/04/01 07:20:28;;;;;;;7.03;6.53;;;7.30;99.90;;;;;;5066218;28;20384;-90
2022/04/01 07:22:54;;;;;;;7.15;6.55;;;8.30;99.90;;;;;;5066866;28;20513;-90
2022/04/01 07:25:21;;;;;;;7.25;6.65;;;7.10;99.90;;;;;;5042634;28;20389;-90
2022/04/01 07:27:47;;;;;;;7.05;6.45;;;6.80;99.90;;;;;;5050582;28;20507;-90
2022/04/01 07:30:13;;;;;;;6.50;6.00;;;7.00;99.90;;;;;;5041448;28;20413;-89
2022/04/01 07:32:40;;;;;;;7.47;6.87;;;6.70;99.90;;;;;;5055108;28;20421;-89
2022/04/01 07:35:10;;;;;;;6.80;6.20;;;6.70;99.90;;;;;;5055163;28;20929;-90
2022/04/01 07:37:36;;;;;;;6.60;6.10;;;7.50;99.90;;;;;;5056288;28;20381;-90
2022/04/01 07:40:04;;;;;;;7.20;6.60;;;7.60;99.90;;;;;;5056987;28;20404;-89
2022/04/01 07:42:49;;;;;;;6.90;6.30;;;7.20;99.90;;;;;;5045611;28;20431;-89
2022/04/01 07:49:21;;;;;;;9.40;8.60;;;7.10;99.90;;;;;;5014877;28;20398;-90
2022/04/01 07:51:53;;;;;;;12.55;11.25;;;6.70;99.90;;;;;;5012475;28;20386;-90
2022/04/01 07:54:42;;;;;;;10.05;9.15;;;6.80;99.90;;;;;;5050156;28;20468;-90
2022/04/01 07:57:09;;;;;;;8.57;7.88;;;6.50;99.90;;;;;;5048372;28;20425;-90
2022/04/01 07:59:35;;;;;;;7.75;7.15;;;7.80;99.90;;;;;;5014164;28;20408;-90
2022/04/01 08:02:02;;;;;;;7.20;6.65;;;7.00;99.90;;;;;;5055613;28;20412;-89
2022/04/01 08:04:43;;;;;;;7.57;6.97;;;6.90;99.90;;;;;;5037223;28;20381;-89
2022/04/01 08:07:17;;;;;;;5.80;5.38;;;5.70;99.90;;;;;;5057481;28;20486;-88
2022/04/01 08:09:44;;;;;;;6.32;5.82;;;6.40;99.90;;;;;;5055628;28;20385;-89
2022/04/01 08:12:10;;;;;;;6.00;5.60;;;6.50;99.90;;;;;;5054467;28;20868;-88
2022/04/01 08:14:37;;;;;;;5.57;5.07;;;7.40;99.90;;;;;;5049759;28;20393;-88
2022/04/01 08:17:04;;;;;;;5.60;5.20;;;6.40;99.90;;;;;;5053805;28;20396;-88
2022/04/01 08:19:30;;;;;;;5.78;5.28;;;6.20;99.90;;;;;;5058227;28;20439;-88
2022/04/01 08:21:57;;;;;;;5.13;4.72;;;6.30;99.90;;;;;;5061465;28;20408;-88
2022/04/01 08:24:24;;;;;;;4.43;4.05;;;6.40;99.90;;;;;;5061377;28;20385;-88
2022/04/01 08:26:51;;;;;;;4.75;4.45;;;6.40;99.90;;;;;;5058622;28;20390;-88
2022/04/01 08:29:17;;;;;;;5.60;5.20;;;6.50;99.90;;;;;;5059024;28;20400;-88
2022/04/01 08:31:42;;;;;;;5.47;4.97;;;6.60;99.90;;;;;;5041823;28;20433;-88
2022/04/01 08:34:09;;;;;;;5.32;4.93;;;6.50;99.90;;;;;;5058914;28;20427;-88
2022/04/01 08:36:35;;;;;;;5.50;5.10;;;6.50;99.90;;;;;;5042271;28;20907;-88
2022/04/01 08:39:01;;;;;;;5.40;5.00;;;7.40;99.90;;;;;;5040551;28;20389;-88
2022/04/01 08:41:27;;;;;;;4.77;4.47;;;6.50;99.90;;;;;;5057064;28;20417;-87
2022/04/01 08:43:53;;;;;;;4.90;4.53;;;6.90;99.90;;;;;;5054967;28;20396;-89
2022/04/01 08:46:21;;;;;;;4.97;4.57;;;7.00;99.90;;;;;;5056819;28;20389;-90
2022/04/01 08:48:48;;;;;;;4.43;4.13;;;6.70;99.90;;;;;;5057390;28;20397;-89
2022/04/01 08:51:14;;;;;;;3.90;3.60;;;6.20;99.90;;;;;;5056146;28;20413;-90
2022/04/01 08:53:43;;;;;;;3.70;3.40;;;6.20;99.90;;;;;;5056023;28;20393;-90
2022/04/01 08:56:11;;;;;;;4.13;3.83;;;6.10;99.90;;;;;;5056442;28;20388;-89
2022/04/01 08:58:37;;;;;;;3.80;3.50;;;6.10;99.90;;;;;;5055434;28;20469;-89
2022/04/01 09:01:07;;;;;;;3.80;3.50;;;6.20;99.90;;;;;;5037220;28;20508;-89
2022/04/01 09:03:35;;;;;;;3.65;3.35;;;7.10;99.90;;;;;;5036993;28;20429;-89
2022/04/01 09:06:03;;;;;;;3.70;3.40;;;6.40;99.90;;;;;;5035383;28;20375;-89
2022/04/01 09:08:35;;;;;;;3.55;3.25;;;6.60;99.90;;;;;;5044287;28;20389;-89
2022/04/01 09:11:07;;;;;;;3.72;3.42;;;6.50;99.90;;;;;;5023735;28;20399;-89
2022/04/01 09:13:48;;;;;;;3.60;3.30;;;6.80;99.90;;;;;;5055182;28;20390;-89
2022/04/01 09:16:32;;;;;;;3.80;3.50;;;6.90;99.90;;;;;;5045092;28;20393;-89
2022/04/01 09:19:00;;;;;;;4.28;3.97;;;6.80;99.90;;;;;;5042780;28;20411;-90
2022/04/01 09:21:31;;;;;;;3.80;3.50;;;6.70;99.90;;;;;;5045275;28;20416;-88
2022/04/01 09:23:57;;;;;;;3.92;3.63;;;6.70;99.90;;;;;;5050796;28;20424;-89
2022/04/01 09:26:47;;;;;;;4.95;4.53;;;6.90;99.90;;;;;;5052721;28;20409;-89
2022/04/01 09:29:12;;;;;;;4.55;4.15;;;7.40;99.90;;;;;;5046030;28;20864;-88
2022/04/01 09:31:40;;;;;;;4.90;4.50;;;6.50;99.90;;;;;;5055775;28;20729;-89
2022/04/01 09:34:12;;;;;;;5.18;4.80;;;7.40;99.90;;;;;;5054706;28;20393;-89
2022/04/01 09:36:41;;;;;;;5.60;5.20;;;6.00;99.90;;;;;;5056252;28;20396;-89
2022/04/01 09:39:19;;;;;;;6.60;6.00;;;6.70;99.90;;;;;;5025204;28;20480;-88
2022/04/01 09:41:48;;;;;;;5.60;5.10;;;5.80;99.90;;;;;;5039378;28;20409;-88
2022/04/01 09:44:24;;;;;;;5.45;5.03;;;6.60;99.90;;;;;;5056195;28;20391;-89
2022/04/01 09:47:04;;;;;;;5.20;4.80;;;5.90;99.90;;;;;;5051938;28;20391;-89
2022/04/01 09:49:45;;;;;;;4.27;3.97;;;6.10;99.90;;;;;;5036723;28;20764;-88
2022/04/01 09:52:22;;;;;;;4.78;4.38;;;6.70;99.90;;;;;;5053781;28;20409;-89
2022/04/01 09:54:55;;;;;;;4.72;4.32;;;6.70;99.90;;;;;;5050520;28;20834;-89
2022/04/01 09:57:23;;;;;;;4.63;4.28;;;6.80;99.90;;;;;;5053559;28;20400;-89
2022/04/01 09:59:51;;;;;;;4.30;3.90;;;6.70;99.90;;;;;;5033701;28;20436;-88
2022/04/01 10:02:20;;;;;;;4.50;4.20;;;7.20;99.90;;;;;;5054986;28;20405;-89
2022/04/01 10:04:58;;;;;;;4.40;4.10;;;7.10;99.90;;;;;;5056443;28;20409;-89
2022/04/01 10:07:26;;;;;;;4.00;3.70;;;6.50;99.90;;;;;;5055274;28;20411;-89
2022/04/01 10:10:16;;;;;;;3.45;3.17;;;7.40;99.90;;;;;;5032888;28;20891;-89
2022/04/01 10:16:06;;;;;;;;;;;;;;;;;;;;;
2022/04/01 10:19:09;;;;;;;3.20;3.00;;;6.90;99.90;;;;;;5045763;28;20935;-90
2022/04/01 10:28:10;;;;;;;1.40;1.30;;;7.00;99.90;;;;;;5031757;28;20433;-87
2022/04/01 10:30:57;;;;;;;1.88;1.77;;;6.70;99.90;;;;;;5028265;28;20845;-89
2022/04/01 10:33:45;;;;;;;2.20;1.90;;;6.70;99.90;;;;;;5031810;28;20392;-90
2022/04/01 10:36:22;;;;;;;1.70;1.60;;;6.60;99.90;;;;;;5026830;28;20391;-89
2022/04/01 10:39:20;;;;;;;1.90;1.80;;;6.60;99.90;;;;;;5012873;28;20391;-89
2022/04/01 10:46:12;;;;;;;2.10;1.90;;;6.10;99.90;;;;;;5104610;28;20863;-89
2022/04/01 10:51:41;;;;;;;1.73;1.63;;;7.30;99.90;;;;;;5051308;28;20533;-90
2022/04/01 10:54:10;;;;;;;1.77;1.67;;;6.50;99.90;;;;;;5095676;28;20395;-89
2022/04/01 10:56:54;;;;;;;1.95;1.80;;;6.70;99.90;;;;;;5096594;27;20463;-89
2022/04/01 11:00:04;;;;;;;1.55;1.45;;;6.90;99.90;;;;;;5109324;28;20528;-88
2022/04/01 11:03:26;;;;;;;1.70;1.60;;;7.00;99.90;;;;;;5107613;28;20757;-89
2022/04/01 11:06:48;;;;;;;2.33;2.13;;;6.80;99.90;;;;;;5011863;28;20487;-89
2022/04/01 11:09:36;;;;;;;2.10;1.60;;;7.10;99.90;;;;;;5011133;28;20480;-89
2022/04/01 11:12:30;;;;;;;2.10;2.00;;;7.10;99.90;;;;;;5013076;28;20396;-89
2022/04/01 11:15:31;;;;;;;2.10;1.90;;;6.90;99.90;;;;;;5027508;28;20400;-88
2022/04/01 11:17:57;;;;;;;1.70;1.52;;;7.80;99.90;;;;;;5026475;28;20406;-88
2022/04/01 11:20:40;;;;;;;1.90;1.40;;;6.80;99.90;;;;;;5032087;28;20399;-88
2022/04/01 11:23:10;;;;;;;1.25;1.15;;;7.10;99.90;;;;;;5055425;28;20469;-88
2022/04/01 11:25:36;;;;;;;0.90;0.90;;;7.00;99.90;;;;;;5111568;28;20394;-87
2022/04/01 11:28:14;;;;;;;1.20;1.10;;;7.00;99.90;;;;;;5116168;28;20380;-88
2022/04/01 11:30:54;;;;;;;1.30;1.20;;;6.70;99.90;;;;;;5119091;28;20754;-88
2022/04/01 11:33:21;;;;;;;1.15;1.15;;;7.20;99.90;;;;;;5116103;28;20506;-88
2022/04/01 11:35:50;;;;;;;1.52;1.42;;;6.70;99.90;;;;;;5118238;28;20395;-88
2022/04/01 11:38:19;;;;;;;1.20;1.10;;;6.80;99.90;;;;;;5119481;28;20384;-88
2022/04/01 11:40:58;;;;;;;1.88;1.77;;;7.00;99.90;;;;;;5101632;28;20393;-88
2022/04/01 11:43:26;;;;;;;1.40;1.30;;;7.10;99.90;;;;;;5113504;28;20365;-88
2022/04/01 11:45:59;;;;;;;0.93;0.93;;;7.60;99.90;;;;;;5117342;28;20388;-87
2022/04/01 11:48:45;;;;;;;1.40;1.30;;;7.20;99.90;;;;;;5118145;28;20403;-88
2022/04/01 11:51:19;;;;;;;1.40;1.30;;;7.10;99.90;;;;;;5121588;28;20382;-87
2022/04/01 11:54:01;;;;;;;1.10;1.10;;;6.90;99.90;;;;;;5144495;27;20893;-88
2022/04/01 11:56:28;;;;;;;2.40;2.20;;;7.20;99.90;;;;;;5144900;27;20378;-87
2022/04/01 11:59:04;;;;;;;1.23;1.20;;;6.80;99.90;;;;;;5142571;27;20393;-88
2022/04/01 12:01:54;;;;;;;1.50;1.25;;;6.20;99.90;;;;;;5133423;27;20462;-88
2022/04/01 12:04:38;;;;;;;1.30;1.20;;;7.00;99.90;;;;;;5117037;28;20513;-89
2022/04/01 12:09:59;;;;;;;0.90;0.90;;;6.90;99.90;;;;;;5100069;28;20747;-88
2022/04/01 12:12:26;;;;;;;1.20;1.10;;;6.60;99.90;;;;;;5118805;28;20386;-88
2022/04/01 12:15:06;;;;;;;1.08;1.00;;;6.80;99.90;;;;;;5121589;28;20398;-89
2022/04/01 12:17:33;;;;;;;1.60;1.50;;;6.90;99.90;;;;;;5114252;27;20386;-88
2022/04/01 12:20:12;;;;;;;2.30;1.65;;;7.20;99.90;;;;;;5119941;27;20379;-88
2022/04/01 12:22:41;;;;;;;1.85;1.75;;;6.60;99.90;;;;;;5119642;27;20399;-88
2022/04/01 12:25:07;;;;;;;1.73;1.63;;;6.60;99.90;;;;;;5119575;27;20452;-88
2022/04/01 12:27:33;;;;;;;1.73;1.63;;;6.40;99.90;;;;;;5119504;27;20378;-88
2022/04/01 12:29:58;;;;;;;1.73;1.63;;;7.50;99.90;;;;;;5122363;27;20379;-88
2022/04/01 12:32:24;;;;;;;1.88;1.70;;;6.60;99.90;;;;;;5130852;27;20380;-88
2022/04/01 12:34:51;;;;;;;1.80;1.70;;;6.60;99.90;;;;;;5117365;28;20385;-88
2022/04/01 12:37:20;;;;;;;1.90;1.80;;;6.60;99.90;;;;;;5117231;28;20450;-88
2022/04/01 12:39:59;;;;;;;2.13;2.03;;;6.50;99.90;;;;;;5116945;28;20383;-88
2022/04/01 12:42:25;;;;;;;2.10;1.90;;;6.50;99.90;;;;;;5106834;28;20803;-88
2022/04/01 12:44:56;;;;;;;1.70;1.60;;;7.00;99.90;;;;;;5116178;28;20479;-88
2022/04/01 12:47:30;;;;;;;1.55;1.45;;;7.50;99.90;;;;;;5112911;28;20826;-88
2022/04/01 12:49:59;;;;;;;1.30;1.20;;;6.90;99.90;;;;;;5115526;28;20437;-88
2022/04/01 12:52:27;;;;;;;1.65;1.55;;;6.90;99.90;;;;;;5118474;28;20384;-88
2022/04/01 12:55:01;;;;;;;1.90;1.80;;;6.50;99.90;;;;;;5123397;28;20743;-88
2022/04/01 12:57:27;;;;;;;1.70;1.60;;;6.30;99.90;;;;;;5122300;27;20411;-88
2022/04/01 12:59:56;;;;;;;2.17;2.00;;;6.70;99.90;;;;;;5120684;28;20879;-88
2022/04/01 13:02:23;;;;;;;2.00;1.77;;;6.80;99.90;;;;;;5111304;28;20420;-88
2022/04/01 13:04:53;;;;;;;1.65;1.55;;;7.00;99.90;;;;;;5119031;28;20416;-88
2022/04/01 13:07:23;;;;;;;1.70;1.60;;;7.90;99.90;;;;;;5120867;28;20430;-89
2022/04/01 13:09:50;;;;;;;2.10;1.80;;;7.10;99.90;;;;;;5124697;28;20415;-88
2022/04/01 13:12:18;;;;;;;2.00;1.88;;;7.60;99.90;;;;;;5122958;28;20882;-89
2022/04/01 13:14:45;;;;;;;1.98;1.88;;;7.10;99.90;;;;;;5118747;27;20471;-88
2022/04/01 13:17:15;;;;;;;6.15;5.55;;;7.00;99.90;;;;;;5116666;27;20801;-89
2022/04/01 13:19:44;;;;;;;3.38;3.08;;;7.20;99.90;;;;;;5122937;28;20380;-89
2022/04/01 13:22:09;;;;;;;2.95;2.63;;;7.00;99.90;;;;;;5119082;28;20411;-89
2022/04/01 13:24:44;;;;;;;2.72;2.53;;;7.20;99.90;;;;;;5123143;28;20396;-88
2022/04/01 13:27:14;;;;;;;3.20;3.00;;;6.90;99.90;;;;;;5118240;28;20388;-89
2022/04/01 13:29:40;;;;;;;2.38;2.17;;;7.40;99.90;;;;;;5122999;28;20391;-88
2022/04/01 13:32:10;;;;;;;4.70;4.30;;;6.80;99.90;;;;;;5115809;28;20380;-88
2022/04/01 13:34:42;;;;;;;2.38;2.17;;;6.30;99.90;;;;;;5119656;28;20411;-88
2022/04/01 13:37:12;;;;;;;3.17;2.97;;;7.50;99.90;;;;;;5100238;28;20394;-88